This is the latest recevied weather packets stored in our database for station/object HG5OJG-6. If no packets are shown the sender has not sent any weather packets the latest 10 day(s).
| Time | Temp. | Humidity | Pressure | Rain* | Wind** | Luminosity | Snow |
|---|---|---|---|---|---|---|---|
| 1778250419 | 24.44° C | 42% | 1013.8 hPa | 0 mm | - | 396 W/m² | - |
| 1778249121 | 23.89° C | 45% | 1013.7 hPa | 0 mm | - | 626 W/m² | - |
| 1778247363 | 22.22° C | 48% | 1014.1 hPa | 0 mm | - | 323 W/m² | - |
| 1778245555 | 22.78° C | 48% | 1014.3 hPa | 0 mm | - | 137 W/m² | - |
| 1778243758 | 21.67° C | 51% | 1014.5 hPa | 0 mm | - | 358 W/m² | - |
| 1778243141 | 21.11° C | 51% | 1014.5 hPa | 0 mm | - | 152 W/m² | - |
| 1778239554 | 22.78° C | 51% | 1014.7 hPa | 0 mm | - | 848 W/m² | - |
| 1778239050 | 22.22° C | 52% | 1014.8 hPa | 0 mm | - | 578 W/m² | - |
| 1778236551 | 20.56° C | 54% | 1015.2 hPa | 0 mm | - | 291 W/m² | - |
| 1778234148 | 21.11° C | 55% | 1015.2 hPa | 0 mm | - | 400 W/m² | - |
| 1778233552 | 20.56° C | 55% | 1015.3 hPa | 0 mm | - | 191 W/m² | - |
| 1778230602 | 22.22° C | 55% | 1015.3 hPa | 0 mm | - | 649 W/m² | - |
| 1778229966 | 22.22° C | 56% | 1015.3 hPa | 0 mm | - | 636 W/m² | - |
| 1778229431 | 21.11° C | 59% | 1015.2 hPa | 0 mm | - | 618 W/m² | - |
| 1778228785 | 21.11° C | 58% | 1015.3 hPa | 0 mm | - | 444 W/m² | - |
| 1778225816 | 20.56° C | 64% | 1015.2 hPa | 0 mm | - | 462 W/m² | - |
| 1778222179 | 18.33° C | 73% | 1015.1 hPa | 0 mm | - | 289 W/m² | - |
| 1778220962 | 17.22° C | 79% | 1015 hPa | 0 mm | - | 179 W/m² | - |
| 1778220326 | 17.22° C | 83% | 1015 hPa | 0 mm | - | 156 W/m² | - |
| 1778219731 | 16.11° C | 86% | 1015.1 hPa | 0 mm | - | 138 W/m² | - |
| 1778216741 | 12.22° C | 92% | 1014.7 hPa | 0 mm | - | 57 W/m² | - |
| 1778216155 | 11.67° C | 92% | 1014.7 hPa | 0 mm | - | 40 W/m² | - |
| 1778215561 | 11.67° C | 92% | 1014.7 hPa | 0 mm | - | 39 W/m² | - |
| 1778213751 | 11.11° C | 92% | 1014.5 hPa | 0 mm | - | 25 W/m² | - |
| 1778211347 | 11.11° C | 91% | 1014.4 hPa | 0 mm | - | 7 W/m² | - |
* Rain latest hour (hover to see other rain measurements)
** Current wind speed in m/s (hover to see current wind gust speed)